Time;durP1;ratioP1;P1;durP2;ratioP2;P2;SDS_P1;SDS_P2;PMS_P1;PMS_P2;Temp;Humidity;BMP_temperature;BMP_pressure;BME280_temperature;BME280_humidity;BME280_pressure;Samples;Min_cycle;Max_cycle;Signal;HPM_P1;HPM_P2
2023/03/08 00:00:57;;;;;;;5.93;4.87;;;;;;;;;;5087713;28;20274;-54
2023/03/08 00:03:23;;;;;;;6.77;5.47;;;;;;;;;;5089652;28;20776;-54
2023/03/08 00:05:49;;;;;;;5.83;5.10;;;;;;;;;;5088764;28;20291;-55
2023/03/08 00:08:16;;;;;;;6.87;5.43;;;;;;;;;;5090998;28;20297;-54
2023/03/08 00:10:43;;;;;;;6.03;4.77;;;;;;;;;;5090171;28;20211;-55
2023/03/08 00:13:09;;;;;;;5.57;4.57;;;;;;;;;;5087547;28;20184;-55
2023/03/08 00:15:38;;;;;;;7.43;5.33;;;;;;;;;;5088115;28;20191;-56
2023/03/08 00:18:05;;;;;;;8.40;5.07;;;;;;;;;;5087127;28;21656;-54
2023/03/08 00:20:31;;;;;;;6.43;5.23;;;;;;;;;;5085448;28;21924;-54
2023/03/08 00:22:57;;;;;;;5.40;4.27;;;;;;;;;;5083937;28;20635;-54
2023/03/08 00:25:23;;;;;;;5.57;4.50;;;;;;;;;;5096065;28;20601;-55
2023/03/08 00:27:49;;;;;;;6.00;5.00;;;;;;;;;;5086425;28;20188;-55
2023/03/08 00:30:15;;;;;;;5.67;4.83;;;;;;;;;;5085222;28;20242;-55
2023/03/08 00:32:42;;;;;;;4.93;4.37;;;;;;;;;;5088341;28;20320;-55
2023/03/08 00:35:08;;;;;;;5.17;4.10;;;;;;;;;;5077436;28;20267;-55
2023/03/08 00:37:34;;;;;;;6.13;5.33;;;;;;;;;;5090138;28;20711;-54
2023/03/08 00:40:00;;;;;;;5.50;4.33;;;;;;;;;;5088894;28;20631;-55
2023/03/08 00:42:27;;;;;;;5.27;4.77;;;;;;;;;;5089288;28;20712;-55
2023/03/08 00:44:53;;;;;;;5.37;4.87;;;;;;;;;;5081768;28;20186;-55
2023/03/08 00:47:19;;;;;;;4.60;4.20;;;;;;;;;;5090202;28;20187;-54
2023/03/08 00:49:45;;;;;;;6.10;4.80;;;;;;;;;;5086337;28;20380;-55
2023/03/08 00:52:11;;;;;;;5.10;4.27;;;;;;;;;;5089040;28;20168;-55
2023/03/08 00:54:37;;;;;;;6.20;4.77;;;;;;;;;;5087767;28;20180;-55
2023/03/08 00:57:04;;;;;;;8.63;4.53;;;;;;;;;;5086299;28;20709;-55
2023/03/08 00:59:30;;;;;;;5.30;4.43;;;;;;;;;;5088470;28;20176;-55
2023/03/08 01:01:56;;;;;;;7.70;5.03;;;;;;;;;;5088578;28;20595;-54
2023/03/08 01:04:22;;;;;;;4.77;3.97;;;;;;;;;;5086429;28;20592;-55
2023/03/08 01:06:48;;;;;;;4.30;3.67;;;;;;;;;;5087771;28;20710;-55
2023/03/08 01:09:14;;;;;;;5.03;4.23;;;;;;;;;;5089206;28;20631;-54
2023/03/08 01:11:40;;;;;;;6.33;4.47;;;;;;;;;;5087633;28;20236;-55
2023/03/08 01:14:07;;;;;;;5.17;4.43;;;;;;;;;;5089263;28;20651;-55
2023/03/08 01:16:33;;;;;;;4.27;3.87;;;;;;;;;;5079388;28;20641;-54
2023/03/08 01:19:00;;;;;;;6.00;4.70;;;;;;;;;;5080203;28;20176;-55
2023/03/08 01:21:27;;;;;;;6.40;5.07;;;;;;;;;;5083948;28;20266;-54
2023/03/08 01:23:53;;;;;;;4.93;4.10;;;;;;;;;;5089334;28;20183;-55
2023/03/08 01:26:21;;;;;;;4.73;4.30;;;;;;;;;;5088661;28;20187;-55
2023/03/08 01:28:47;;;;;;;6.27;4.90;;;;;;;;;;5088587;28;20202;-55
2023/03/08 01:31:18;;;;;;;5.87;4.30;;;;;;;;;;5087293;28;20523;-54
2023/03/08 01:33:44;;;;;;;6.00;4.97;;;;;;;;;;5087210;28;20214;-55
2023/03/08 01:36:12;;;;;;;4.43;4.00;;;;;;;;;;5083083;28;20180;-54
2023/03/08 01:38:38;;;;;;;5.47;4.57;;;;;;;;;;5085091;28;20222;-55
2023/03/08 01:41:05;;;;;;;5.30;4.73;;;;;;;;;;5087150;28;20195;-54
2023/03/08 01:43:32;;;;;;;5.00;4.50;;;;;;;;;;5087992;28;20222;-54
2023/03/08 01:46:19;;;;;;;6.77;4.63;;;;;;;;;;5081756;28;20188;-54
2023/03/08 01:48:56;;;;;;;5.43;4.10;;;;;;;;;;5082026;28;20244;-54
2023/03/08 01:51:25;;;;;;;4.97;4.47;;;;;;;;;;5086829;28;20254;-55
2023/03/08 01:53:52;;;;;;;5.17;4.30;;;;;;;;;;5092528;28;20224;-55
2023/03/08 01:56:20;;;;;;;5.00;3.77;;;;;;;;;;5084534;28;20650;-54
2023/03/08 01:58:48;;;;;;;6.10;4.37;;;;;;;;;;5088513;28;20175;-55
2023/03/08 02:01:14;;;;;;;6.60;4.30;;;;;;;;;;5079826;28;20547;-55
2023/03/08 02:06:44;;;;;;;5.10;4.10;;;;;;;;;;5052100;28;20173;-55
2023/03/08 02:09:10;;;;;;;4.90;4.40;;;;;;;;;;5079985;28;20267;-54
2023/03/08 02:11:38;;;;;;;5.30;4.10;;;;;;;;;;5081206;28;20220;-55
2023/03/08 02:14:04;;;;;;;6.07;4.57;;;;;;;;;;5084765;28;20184;-54
2023/03/08 02:16:30;;;;;;;5.23;4.00;;;;;;;;;;5084319;28;20612;-55
2023/03/08 02:18:57;;;;;;;4.70;4.10;;;;;;;;;;5086005;28;20248;-55
2023/03/08 02:21:24;;;;;;;5.10;4.53;;;;;;;;;;5076847;28;20188;-55
2023/03/08 02:23:50;;;;;;;4.57;4.00;;;;;;;;;;5083766;28;20639;-55
2023/03/08 02:26:16;;;;;;;4.57;3.77;;;;;;;;;;5078772;28;20714;-55
2023/03/08 02:28:43;;;;;;;5.13;4.43;;;;;;;;;;5084906;28;20585;-55
2023/03/08 02:31:09;;;;;;;4.97;4.47;;;;;;;;;;5079547;28;20714;-54
2023/03/08 02:33:36;;;;;;;4.27;3.87;;;;;;;;;;5083053;28;20672;-54
2023/03/08 02:36:02;;;;;;;4.53;3.87;;;;;;;;;;5078466;28;20233;-55
2023/03/08 02:38:29;;;;;;;5.93;4.23;;;;;;;;;;5081030;28;20291;-55
2023/03/08 02:40:55;;;;;;;3.97;3.57;;;;;;;;;;5082180;28;20775;-55
2023/03/08 02:43:21;;;;;;;4.93;4.50;;;;;;;;;;5085292;28;20572;-55
2023/03/08 02:45:47;;;;;;;3.87;3.23;;;;;;;;;;5083373;28;20190;-55
2023/03/08 02:48:14;;;;;;;4.67;3.73;;;;;;;;;;5084804;28;20605;-54
2023/03/08 02:50:40;;;;;;;8.23;4.50;;;;;;;;;;5083517;28;20206;-54
2023/03/08 02:53:06;;;;;;;4.93;4.43;;;;;;;;;;5082101;28;20426;-55
2023/03/08 02:55:36;;;;;;;4.00;3.60;;;;;;;;;;5092749;28;20593;-55
2023/03/08 02:58:05;;;;;;;4.70;4.00;;;;;;;;;;5084552;28;20225;-54
2023/03/08 03:00:31;;;;;;;4.63;3.50;;;;;;;;;;5078503;28;20640;-54
2023/03/08 03:02:57;;;;;;;4.00;3.60;;;;;;;;;;5083969;28;20179;-55
2023/03/08 03:05:23;;;;;;;4.23;3.83;;;;;;;;;;5087386;28;20209;-55
2023/03/08 03:07:49;;;;;;;4.90;4.00;;;;;;;;;;5093983;28;20180;-55
2023/03/08 03:10:15;;;;;;;4.13;3.70;;;;;;;;;;5085360;28;20211;-54
2023/03/08 03:12:42;;;;;;;4.27;3.87;;;;;;;;;;5088431;28;20200;-55
2023/03/08 03:15:10;;;;;;;4.27;3.80;;;;;;;;;;5083676;28;20194;-54
2023/03/08 03:17:37;;;;;;;4.50;4.00;;;;;;;;;;5086863;28;20176;-55
2023/03/08 03:20:05;;;;;;;6.97;4.87;;;;;;;;;;5086824;28;20176;-54
2023/03/08 03:22:31;;;;;;;5.70;4.83;;;;;;;;;;5083937;28;20218;-54
2023/03/08 03:24:57;;;;;;;6.80;4.60;;;;;;;;;;5086450;28;20179;-55
2023/03/08 03:27:23;;;;;;;5.30;4.80;;;;;;;;;;5086815;28;20331;-55
2023/03/08 03:29:50;;;;;;;4.93;4.40;;;;;;;;;;5083489;28;20247;-55
2023/03/08 03:32:16;;;;;;;4.80;4.30;;;;;;;;;;5086848;28;20386;-56
2023/03/08 03:34:42;;;;;;;6.00;4.87;;;;;;;;;;5086528;28;20245;-54
2023/03/08 03:37:08;;;;;;;6.40;5.50;;;;;;;;;;5076425;28;20536;-54
2023/03/08 03:39:37;;;;;;;7.13;5.37;;;;;;;;;;5081101;28;20184;-54
2023/03/08 03:42:04;;;;;;;6.97;6.23;;;;;;;;;;5083974;28;20537;-55
2023/03/08 03:44:30;;;;;;;6.57;5.07;;;;;;;;;;5095021;28;20438;-55
2023/03/08 03:46:56;;;;;;;6.80;5.33;;;;;;;;;;5088923;28;20187;-56
2023/03/08 03:49:22;;;;;;;6.97;5.90;;;;;;;;;;5087294;28;20654;-56
2023/03/08 03:51:48;;;;;;;8.07;6.00;;;;;;;;;;5086522;28;20638;-55
2023/03/08 03:54:14;;;;;;;8.03;6.20;;;;;;;;;;5087241;28;20175;-55
2023/03/08 03:56:41;;;;;;;8.23;5.33;;;;;;;;;;5089207;28;20440;-55
2023/03/08 03:59:07;;;;;;;7.67;6.80;;;;;;;;;;5088019;28;20388;-55
2023/03/08 04:01:33;;;;;;;7.63;6.20;;;;;;;;;;5085772;28;20426;-56
2023/03/08 04:03:59;;;;;;;7.33;6.37;;;;;;;;;;5090073;28;20949;-54
2023/03/08 04:06:29;;;;;;;9.50;6.70;;;;;;;;;;5086205;28;20538;-54
2023/03/08 04:08:58;;;;;;;7.90;6.30;;;;;;;;;;5087919;28;20993;-54
2023/03/08 04:11:26;;;;;;;10.87;7.53;;;;;;;;;;5084767;28;20556;-54
2023/03/08 04:13:52;;;;;;;8.07;6.17;;;;;;;;;;5093729;28;20438;-54
2023/03/08 04:16:25;;;;;;;8.33;6.60;;;;;;;;;;5092285;28;20183;-54
2023/03/08 04:18:55;;;;;;;8.83;6.63;;;;;;;;;;5087717;28;20445;-54
2023/03/08 04:21:22;;;;;;;8.10;7.30;;;;;;;;;;5087280;28;20448;-54
2023/03/08 04:23:48;;;;;;;9.50;8.07;;;;;;;;;;5087172;28;20437;-54
2023/03/08 04:26:14;;;;;;;10.07;7.60;;;;;;;;;;5089537;28;20176;-54
2023/03/08 04:28:41;;;;;;;9.93;7.50;;;;;;;;;;5083789;28;20564;-54
2023/03/08 04:31:11;;;;;;;9.80;8.33;;;;;;;;;;5084428;28;20871;-54
2023/03/08 04:33:37;;;;;;;8.77;7.77;;;;;;;;;;5088665;28;20429;-54
2023/03/08 04:36:03;;;;;;;10.67;7.80;;;;;;;;;;5087461;28;20474;-54
2023/03/08 04:38:32;;;;;;;10.33;8.27;;;;;;;;;;5087860;28;20534;-53
2023/03/08 04:41:01;;;;;;;10.60;8.10;;;;;;;;;;5087273;28;20180;-54
2023/03/08 04:43:30;;;;;;;11.23;7.63;;;;;;;;;;5087357;28;20188;-54
2023/03/08 04:45:56;;;;;;;8.83;6.97;;;;;;;;;;5087553;28;20764;-56
2023/03/08 04:48:22;;;;;;;12.90;8.80;;;;;;;;;;5088641;28;20191;-54
2023/03/08 04:50:54;;;;;;;10.67;8.40;;;;;;;;;;5085398;28;20851;-55
2023/03/08 04:53:20;;;;;;;9.53;7.73;;;;;;;;;;5088021;28;20214;-55
2023/03/08 04:55:46;;;;;;;12.00;8.97;;;;;;;;;;5088513;28;20474;-55
2023/03/08 04:58:12;;;;;;;10.93;8.17;;;;;;;;;;5087630;28;20545;-55
2023/03/08 05:00:38;;;;;;;10.87;8.63;;;;;;;;;;5084395;28;20295;-54
2023/03/08 05:03:05;;;;;;;10.17;8.20;;;;;;;;;;5086672;28;20294;-54
2023/03/08 05:05:31;;;;;;;9.07;7.97;;;;;;;;;;5089177;28;20203;-54
2023/03/08 05:07:58;;;;;;;10.97;8.13;;;;;;;;;;5080775;28;20194;-54
2023/03/08 05:10:24;;;;;;;10.90;8.60;;;;;;;;;;5085825;28;20475;-55
2023/03/08 05:12:51;;;;;;;10.90;8.87;;;;;;;;;;5087898;28;20433;-54
2023/03/08 05:15:17;;;;;;;10.60;8.17;;;;;;;;;;5079784;28;20496;-55
2023/03/08 05:17:43;;;;;;;10.70;8.10;;;;;;;;;;5083949;28;20438;-54
2023/03/08 05:20:09;;;;;;;9.63;7.57;;;;;;;;;;5079254;28;20433;-55
2023/03/08 05:22:35;;;;;;;10.83;8.47;;;;;;;;;;5087654;28;20175;-54
2023/03/08 05:25:01;;;;;;;12.43;8.27;;;;;;;;;;5081387;28;20427;-55
2023/03/08 05:27:31;;;;;;;9.93;8.00;;;;;;;;;;5085450;28;20187;-55
2023/03/08 05:29:57;;;;;;;9.63;7.93;;;;;;;;;;5084918;28;20467;-55
2023/03/08 05:32:23;;;;;;;12.03;8.63;;;;;;;;;;5087448;28;20184;-55
2023/03/08 05:34:49;;;;;;;11.07;9.00;;;;;;;;;;5087361;28;20521;-55
2023/03/08 05:37:15;;;;;;;11.23;8.37;;;;;;;;;;5079482;28;20232;-55
2023/03/08 05:39:41;;;;;;;11.37;8.23;;;;;;;;;;5087496;28;20183;-54
2023/03/08 05:42:07;;;;;;;9.07;7.67;;;;;;;;;;5086856;28;20179;-56
2023/03/08 05:44:34;;;;;;;9.97;8.00;;;;;;;;;;5081120;28;20240;-55
2023/03/08 05:47:01;;;;;;;9.63;7.47;;;;;;;;;;5083469;28;20176;-55
2023/03/08 05:49:27;;;;;;;10.60;8.03;;;;;;;;;;5085001;28;20508;-55
2023/03/08 05:51:53;;;;;;;9.23;7.53;;;;;;;;;;5079448;28;20199;-55
2023/03/08 05:54:19;;;;;;;10.07;8.07;;;;;;;;;;5077552;28;20176;-55
2023/03/08 05:56:45;;;;;;;9.73;7.17;;;;;;;;;;5085199;28;20207;-55
2023/03/08 05:59:11;;;;;;;9.77;8.40;;;;;;;;;;5085942;28;20210;-55
2023/03/08 06:01:37;;;;;;;11.43;8.37;;;;;;;;;;5079910;28;20241;-55
2023/03/08 06:04:03;;;;;;;11.60;8.70;;;;;;;;;;5080851;28;20818;-55
2023/03/08 06:06:29;;;;;;;9.67;7.77;;;;;;;;;;5086410;28;20460;-55
2023/03/08 06:08:56;;;;;;;9.87;7.60;;;;;;;;;;5080584;28;20184;-55
2023/03/08 06:11:22;;;;;;;10.47;8.00;;;;;;;;;;5076931;28;20207;-55
2023/03/08 06:13:48;;;;;;;9.23;6.63;;;;;;;;;;5085197;28;20297;-55
2023/03/08 06:16:14;;;;;;;9.40;7.73;;;;;;;;;;5081071;28;20263;-54
2023/03/08 06:18:41;;;;;;;8.80;6.77;;;;;;;;;;5086115;28;20195;-54
2023/03/08 06:21:09;;;;;;;7.77;6.53;;;;;;;;;;5080830;28;20441;-54
2023/03/08 06:23:35;;;;;;;9.30;6.97;;;;;;;;;;5085474;28;20176;-54
2023/03/08 06:26:01;;;;;;;6.70;6.00;;;;;;;;;;5083310;28;20699;-54
2023/03/08 06:28:27;;;;;;;7.53;5.97;;;;;;;;;;5082232;28;20242;-54
2023/03/08 06:30:54;;;;;;;8.57;6.10;;;;;;;;;;5081296;28;20231;-55
2023/03/08 06:33:21;;;;;;;6.90;5.47;;;;;;;;;;5088308;28;20959;-54
2023/03/08 06:35:57;;;;;;;6.70;5.30;;;;;;;;;;5088405;28;20317;-55
2023/03/08 06:38:24;;;;;;;6.67;5.07;;;;;;;;;;5078280;28;20180;-55
2023/03/08 06:40:50;;;;;;;6.50;4.87;;;;;;;;;;5081344;28;20172;-55
2023/03/08 06:43:16;;;;;;;8.43;4.37;;;;;;;;;;5084831;28;20620;-55
2023/03/08 06:45:42;;;;;;;6.27;4.37;;;;;;;;;;5086632;28;20192;-55
2023/03/08 06:48:08;;;;;;;5.83;4.53;;;;;;;;;;5087125;28;20192;-56
2023/03/08 06:50:34;;;;;;;4.80;4.23;;;;;;;;;;5077809;28;20269;-56
2023/03/08 06:53:00;;;;;;;6.10;4.07;;;;;;;;;;5088933;28;20430;-56
2023/03/08 06:55:26;;;;;;;6.70;3.83;;;;;;;;;;5076547;28;20343;-56
2023/03/08 06:57:54;;;;;;;4.37;3.40;;;;;;;;;;5089349;28;20209;-56
2023/03/08 07:00:21;;;;;;;6.40;3.67;;;;;;;;;;5082287;28;20516;-56
2023/03/08 07:02:47;;;;;;;5.00;3.80;;;;;;;;;;5089791;28;20176;-56
2023/03/08 07:05:14;;;;;;;5.57;3.87;;;;;;;;;;5085447;28;20426;-56
2023/03/08 07:07:41;;;;;;;5.67;3.53;;;;;;;;;;5087281;28;20437;-56
2023/03/08 07:10:09;;;;;;;4.00;3.30;;;;;;;;;;5085500;28;21378;-56
2023/03/08 07:12:39;;;;;;;3.63;3.17;;;;;;;;;;5086142;28;20200;-56
2023/03/08 07:15:05;;;;;;;4.37;3.33;;;;;;;;;;5080891;28;20180;-56
2023/03/08 07:17:33;;;;;;;3.97;3.40;;;;;;;;;;5084374;28;20421;-56
2023/03/08 07:19:59;;;;;;;4.20;2.80;;;;;;;;;;5086969;28;20854;-56
2023/03/08 07:22:25;;;;;;;3.73;3.00;;;;;;;;;;5084834;28;20433;-56
2023/03/08 07:24:51;;;;;;;2.87;2.57;;;;;;;;;;5078931;28;20727;-56
2023/03/08 07:27:17;;;;;;;2.77;2.43;;;;;;;;;;5089732;28;20425;-56
2023/03/08 07:29:43;;;;;;;2.90;2.53;;;;;;;;;;5083461;28;20288;-57
2023/03/08 07:32:09;;;;;;;3.53;2.50;;;;;;;;;;5084330;28;20255;-57
2023/03/08 07:34:36;;;;;;;3.83;2.90;;;;;;;;;;5080619;28;20192;-57
2023/03/08 07:37:02;;;;;;;3.33;2.73;;;;;;;;;;5083365;28;20444;-57
2023/03/08 07:39:28;;;;;;;3.37;3.07;;;;;;;;;;5073652;28;20236;-57
2023/03/08 07:41:54;;;;;;;2.93;2.33;;;;;;;;;;5073357;28;20264;-57
2023/03/08 07:44:20;;;;;;;4.33;3.27;;;;;;;;;;5078587;28;20441;-57
2023/03/08 07:46:46;;;;;;;3.53;2.83;;;;;;;;;;5077870;28;20199;-57
2023/03/08 07:49:12;;;;;;;3.57;2.53;;;;;;;;;;5080364;28;20442;-57
2023/03/08 07:51:38;;;;;;;5.43;2.80;;;;;;;;;;5081912;28;20500;-58
2023/03/08 07:54:04;;;;;;;2.93;2.40;;;;;;;;;;5079705;28;20182;-58
2023/03/08 07:56:30;;;;;;;3.67;2.70;;;;;;;;;;5079009;28;20202;-58
2023/03/08 07:58:57;;;;;;;4.33;3.07;;;;;;;;;;5081575;28;20198;-58
2023/03/08 08:01:23;;;;;;;3.17;2.80;;;;;;;;;;5078460;28;20274;-58
2023/03/08 08:03:50;;;;;;;2.83;2.53;;;;;;;;;;5078695;28;20438;-58
2023/03/08 08:06:16;;;;;;;3.23;2.87;;;;;;;;;;5081106;28;20195;-58
2023/03/08 08:08:42;;;;;;;2.57;2.20;;;;;;;;;;5073270;28;20480;-58
2023/03/08 08:11:15;;;;;;;3.07;2.70;;;;;;;;;;5075362;28;20478;-58
2023/03/08 08:13:41;;;;;;;3.57;2.67;;;;;;;;;;5075827;28;20421;-59
2023/03/08 08:16:07;;;;;;;2.47;2.23;;;;;;;;;;5076028;28;20262;-58
2023/03/08 08:18:34;;;;;;;2.33;2.00;;;;;;;;;;5073567;28;20650;-58
2023/03/08 08:21:05;;;;;;;2.37;2.17;;;;;;;;;;5076162;28;20259;-58
2023/03/08 08:23:31;;;;;;;3.40;2.33;;;;;;;;;;5071617;28;20192;-58
2023/03/08 08:25:58;;;;;;;2.40;2.20;;;;;;;;;;5080187;28;20476;-58
2023/03/08 08:28:25;;;;;;;2.87;2.20;;;;;;;;;;5072291;28;20195;-58
2023/03/08 08:30:58;;;;;;;2.73;2.40;;;;;;;;;;5080074;28;20219;-58
2023/03/08 08:33:24;;;;;;;2.17;1.77;;;;;;;;;;5077876;28;20484;-58
2023/03/08 08:35:50;;;;;;;2.53;1.90;;;;;;;;;;5079264;28;20593;-59
2023/03/08 08:38:16;;;;;;;3.97;2.00;;;;;;;;;;5079599;28;20175;-59
2023/03/08 08:40:42;;;;;;;2.03;1.70;;;;;;;;;;5070283;28;20534;-59
2023/03/08 08:43:08;;;;;;;2.97;1.93;;;;;;;;;;5073993;28;20439;-58
2023/03/08 08:45:34;;;;;;;3.17;2.00;;;;;;;;;;5073384;28;20891;-58
2023/03/08 08:48:00;;;;;;;2.27;1.80;;;;;;;;;;5083044;28;20673;-58
2023/03/08 08:50:26;;;;;;;1.83;1.70;;;;;;;;;;5074919;28;20824;-58
2023/03/08 08:52:52;;;;;;;2.47;2.27;;;;;;;;;;5071849;28;20430;-58
2023/03/08 08:55:18;;;;;;;1.87;1.60;;;;;;;;;;5073677;28;20426;-58
2023/03/08 08:57:44;;;;;;;2.80;1.73;;;;;;;;;;5078066;28;20434;-58
2023/03/08 09:00:11;;;;;;;1.90;1.60;;;;;;;;;;5072798;28;20443;-58
2023/03/08 09:02:37;;;;;;;1.70;1.60;;;;;;;;;;5078858;28;20529;-58
2023/03/08 09:05:03;;;;;;;1.80;1.50;;;;;;;;;;5080647;28;20492;-58
2023/03/08 09:07:29;;;;;;;1.60;1.50;;;;;;;;;;5070272;28;20250;-58
2023/03/08 09:09:55;;;;;;;2.03;1.50;;;;;;;;;;5076394;28;20417;-58
2023/03/08 09:12:21;;;;;;;1.47;1.37;;;;;;;;;;5080727;28;20519;-58
2023/03/08 09:14:47;;;;;;;1.87;1.63;;;;;;;;;;5069801;28;20433;-58
2023/03/08 09:17:13;;;;;;;3.00;1.50;;;;;;;;;;5070140;28;20545;-57
2023/03/08 09:19:39;;;;;;;1.33;1.23;;;;;;;;;;5068933;28;20185;-57
2023/03/08 09:22:05;;;;;;;1.70;1.50;;;;;;;;;;5075071;28;20439;-56
2023/03/08 09:24:31;;;;;;;1.87;1.40;;;;;;;;;;5075307;28;20487;-57
2023/03/08 09:26:57;;;;;;;1.60;1.50;;;;;;;;;;5083034;28;20427;-57
2023/03/08 09:29:23;;;;;;;1.77;1.63;;;;;;;;;;5068136;28;20484;-57
2023/03/08 09:31:49;;;;;;;1.60;1.50;;;;;;;;;;5073916;28;20611;-57
2023/03/08 09:34:15;;;;;;;1.83;1.70;;;;;;;;;;5072319;28;20445;-58
2023/03/08 09:36:42;;;;;;;1.50;1.40;;;;;;;;;;5078280;28;20433;-58
2023/03/08 09:39:12;;;;;;;1.40;1.30;;;;;;;;;;5079822;28;20184;-57
2023/03/08 09:41:44;;;;;;;1.70;1.60;;;;;;;;;;5079023;28;20433;-57
2023/03/08 09:44:10;;;;;;;1.47;1.37;;;;;;;;;;5070267;28;20438;-58
2023/03/08 09:46:38;;;;;;;1.63;1.30;;;;;;;;;;5073661;28;20443;-57
2023/03/08 09:49:06;;;;;;;1.40;1.30;;;;;;;;;;5076649;28;20833;-58
2023/03/08 09:51:38;;;;;;;3.57;1.53;;;;;;;;;;5073284;28;20972;-57
2023/03/08 09:54:06;;;;;;;1.57;1.47;;;;;;;;;;5074761;28;20454;-57
2023/03/08 09:56:42;;;;;;;2.23;1.40;;;;;;;;;;5073622;28;20436;-57
2023/03/08 09:59:18;;;;;;;1.50;1.40;;;;;;;;;;5071532;28;20438;-57
2023/03/08 10:01:52;;;;;;;1.07;1.07;;;;;;;;;;5074089;28;20587;-57
2023/03/08 10:04:29;;;;;;;1.87;1.73;;;;;;;;;;5077225;28;20437;-57
2023/03/08 10:07:16;;;;;;;2.00;1.80;;;;;;;;;;5082039;28;20430;-57
2023/03/08 10:10:02;;;;;;;1.60;1.47;;;;;;;;;;5073367;28;20521;-58
2023/03/08 10:12:47;;;;;;;1.40;1.30;;;;;;;;;;5077547;28;20481;-58
2023/03/08 10:15:18;;;;;;;1.40;1.30;;;;;;;;;;5080395;28;20956;-57
2023/03/08 10:17:49;;;;;;;1.93;1.60;;;;;;;;;;5079581;28;20813;-57
2023/03/08 10:20:26;;;;;;;1.60;1.50;;;;;;;;;;5073445;28;20434;-57
2023/03/08 10:23:06;;;;;;;4.03;1.50;;;;;;;;;;5074701;28;20429;-57
2023/03/08 10:25:33;;;;;;;1.47;1.37;;;;;;;;;;5075116;28;20429;-57
2023/03/08 10:28:00;;;;;;;2.43;1.40;;;;;;;;;;5076460;28;20983;-57
2023/03/08 10:30:31;;;;;;;2.50;1.50;;;;;;;;;;5073426;28;20477;-57
2023/03/08 10:32:59;;;;;;;1.93;1.70;;;;;;;;;;5076717;28;20510;-57
2023/03/08 10:35:36;;;;;;;1.30;1.20;;;;;;;;;;5073275;28;20840;-57
2023/03/08 10:38:03;;;;;;;1.90;1.70;;;;;;;;;;5079626;28;20522;-57
2023/03/08 10:40:29;;;;;;;1.80;1.70;;;;;;;;;;5075925;28;20461;-58
2023/03/08 10:42:59;;;;;;;1.50;1.40;;;;;;;;;;5076221;28;20823;-57
2023/03/08 10:45:27;;;;;;;1.50;1.40;;;;;;;;;;5076652;28;21009;-58
2023/03/08 10:48:03;;;;;;;1.73;1.53;;;;;;;;;;5074055;28;20433;-57
2023/03/08 10:50:35;;;;;;;2.10;1.90;;;;;;;;;;5068977;28;20497;-57
2023/03/08 10:53:28;;;;;;;1.90;1.40;;;;;;;;;;5078016;28;20936;-58
2023/03/08 10:55:55;;;;;;;1.60;1.50;;;;;;;;;;5070583;28;20488;-57
2023/03/08 10:58:38;;;;;;;1.73;1.63;;;;;;;;;;5076258;28;20184;-57
2023/03/08 11:01:05;;;;;;;1.93;1.83;;;;;;;;;;5074839;28;20542;-57
2023/03/08 11:03:31;;;;;;;1.53;1.43;;;;;;;;;;5073608;28;20802;-57
2023/03/08 11:05:57;;;;;;;1.53;1.43;;;;;;;;;;5072610;28;20429;-57
2023/03/08 11:08:25;;;;;;;1.50;1.40;;;;;;;;;;5076296;28;20452;-58
2023/03/08 11:11:07;;;;;;;2.17;1.97;;;;;;;;;;5075224;28;20485;-57
2023/03/08 11:13:35;;;;;;;1.97;1.80;;;;;;;;;;5075190;28;20767;-57
2023/03/08 11:16:01;;;;;;;3.70;1.60;;;;;;;;;;5082388;28;20526;-57
2023/03/08 11:18:46;;;;;;;1.90;1.80;;;;;;;;;;5078375;28;20509;-57
2023/03/08 11:21:18;;;;;;;1.70;1.60;;;;;;;;;;5079466;28;20936;-57
2023/03/08 11:23:50;;;;;;;1.80;1.70;;;;;;;;;;5074716;28;20640;-57
2023/03/08 11:26:27;;;;;;;1.60;1.50;;;;;;;;;;5078739;28;20472;-57
2023/03/08 11:28:56;;;;;;;1.90;1.80;;;;;;;;;;5079550;28;20432;-57
2023/03/08 11:31:22;;;;;;;1.60;1.50;;;;;;;;;;5078565;28;20896;-57
2023/03/08 11:34:05;;;;;;;1.80;1.70;;;;;;;;;;5084113;28;20461;-58
2023/03/08 11:36:44;;;;;;;2.00;1.80;;;;;;;;;;5082021;28;20435;-57
2023/03/08 11:39:15;;;;;;;2.17;1.60;;;;;;;;;;5082062;28;21709;-58
2023/03/08 11:41:47;;;;;;;1.80;1.70;;;;;;;;;;5077737;28;20456;-57
2023/03/08 11:44:16;;;;;;;1.93;1.83;;;;;;;;;;5079434;28;20426;-57
2023/03/08 11:46:42;;;;;;;2.23;2.00;;;;;;;;;;5078863;28;20438;-57
2023/03/08 11:49:27;;;;;;;1.93;1.83;;;;;;;;;;5074604;28;21920;-58
2023/03/08 11:52:00;;;;;;;1.90;1.80;;;;;;;;;;5080013;28;20461;-57
2023/03/08 11:54:41;;;;;;;1.93;1.83;;;;;;;;;;5078425;28;20209;-58
2023/03/08 11:57:11;;;;;;;2.20;2.00;;;;;;;;;;5075489;28;20567;-57
2023/03/08 11:59:50;;;;;;;2.50;2.30;;;;;;;;;;5075248;28;20985;-57
2023/03/08 12:02:16;;;;;;;2.40;2.20;;;;;;;;;;5074660;28;20434;-58
2023/03/08 12:04:56;;;;;;;2.27;1.80;;;;;;;;;;5074363;28;21180;-58
2023/03/08 12:07:34;;;;;;;1.90;1.80;;;;;;;;;;5074372;28;20191;-58
2023/03/08 12:10:04;;;;;;;2.17;2.03;;;;;;;;;;5078942;28;20430;-57
2023/03/08 12:12:34;;;;;;;2.20;2.00;;;;;;;;;;5077549;28;20851;-58
2023/03/08 12:15:19;;;;;;;2.00;1.80;;;;;;;;;;5075269;28;21191;-58
2023/03/08 12:17:51;;;;;;;2.43;2.23;;;;;;;;;;5071950;28;20813;-58
2023/03/08 12:20:21;;;;;;;2.07;1.87;;;;;;;;;;5073428;28;21150;-58
2023/03/08 12:22:56;;;;;;;1.57;1.47;;;;;;;;;;5076445;28;20478;-57
2023/03/08 12:25:26;;;;;;;2.33;2.10;;;;;;;;;;5073772;28;20430;-58
2023/03/08 12:27:52;;;;;;;2.33;2.10;;;;;;;;;;5077020;28;20175;-58
2023/03/08 12:30:37;;;;;;;2.10;1.90;;;;;;;;;;5074264;28;21051;-58
2023/03/08 12:33:04;;;;;;;2.30;2.10;;;;;;;;;;5078190;28;20440;-58
2023/03/08 12:35:32;;;;;;;2.17;2.07;;;;;;;;;;5076686;28;20200;-58
2023/03/08 12:38:01;;;;;;;2.00;1.90;;;;;;;;;;5075977;28;20433;-57
2023/03/08 12:40:38;;;;;;;2.13;1.93;;;;;;;;;;5078668;28;20437;-57
2023/03/08 12:43:30;;;;;;;2.10;1.90;;;;;;;;;;5072892;28;20715;-57
2023/03/08 12:45:56;;;;;;;2.37;2.17;;;;;;;;;;5077509;28;20450;-56
2023/03/08 12:48:24;;;;;;;2.17;1.83;;;;;;;;;;5079775;28;20532;-57
2023/03/08 12:50:50;;;;;;;2.10;1.90;;;;;;;;;;5080291;28;20200;-57
2023/03/08 12:53:22;;;;;;;2.30;2.10;;;;;;;;;;5080426;28;20487;-57
2023/03/08 12:55:59;;;;;;;2.00;1.90;;;;;;;;;;5072437;28;20214;-57
2023/03/08 12:58:25;;;;;;;3.07;2.30;;;;;;;;;;5076839;28;20731;-56
2023/03/08 13:00:57;;;;;;;2.10;1.90;;;;;;;;;;5074666;28;20598;-56
2023/03/08 13:03:26;;;;;;;2.50;2.30;;;;;;;;;;5080164;28;20566;-57
2023/03/08 13:05:52;;;;;;;2.60;2.40;;;;;;;;;;5080293;28;20941;-56
2023/03/08 13:08:22;;;;;;;2.80;2.40;;;;;;;;;;5078883;28;20480;-57
2023/03/08 13:10:48;;;;;;;2.57;2.37;;;;;;;;;;5079118;28;20466;-57
2023/03/08 13:13:20;;;;;;;2.57;2.37;;;;;;;;;;5078156;28;20438;-57
2023/03/08 13:15:46;;;;;;;2.60;2.40;;;;;;;;;;5075865;28;20228;-57
2023/03/08 13:18:17;;;;;;;2.47;2.27;;;;;;;;;;5075629;28;20760;-57
2023/03/08 13:21:01;;;;;;;2.50;2.30;;;;;;;;;;5076978;28;20782;-57
2023/03/08 13:23:37;;;;;;;2.37;2.17;;;;;;;;;;5078672;28;20893;-58
2023/03/08 13:26:23;;;;;;;2.83;2.50;;;;;;;;;;5077234;28;20728;-57
2023/03/08 13:28:49;;;;;;;2.30;2.10;;;;;;;;;;5076397;28;20433;-58
2023/03/08 13:31:23;;;;;;;2.60;2.40;;;;;;;;;;5073735;28;20487;-58
2023/03/08 13:33:51;;;;;;;2.70;2.50;;;;;;;;;;5075476;28;20179;-57
2023/03/08 13:36:22;;;;;;;3.00;2.80;;;;;;;;;;5077813;28;20430;-57
2023/03/08 13:38:56;;;;;;;2.47;2.27;;;;;;;;;;5076670;28;20438;-57
2023/03/08 13:41:37;;;;;;;3.73;3.03;;;;;;;;;;5076609;28;20442;-57
2023/03/08 13:44:04;;;;;;;4.50;2.67;;;;;;;;;;5075486;28;20437;-57
2023/03/08 13:46:31;;;;;;;2.97;2.73;;;;;;;;;;5074083;28;20449;-57
2023/03/08 13:48:57;;;;;;;2.57;2.37;;;;;;;;;;5072968;28;20541;-56
2023/03/08 13:51:26;;;;;;;2.63;2.43;;;;;;;;;;5074676;28;20523;-56
2023/03/08 13:53:52;;;;;;;3.20;2.90;;;;;;;;;;5071045;28;20222;-56
2023/03/08 13:56:22;;;;;;;3.20;2.70;;;;;;;;;;5072718;28;20507;-56
2023/03/08 13:58:50;;;;;;;3.07;2.60;;;;;;;;;;5074115;28;20427;-56
2023/03/08 14:01:17;;;;;;;2.83;2.63;;;;;;;;;;5069260;28;20444;-56
2023/03/08 14:03:44;;;;;;;2.90;2.70;;;;;;;;;;5082663;28;20505;-56
2023/03/08 14:06:27;;;;;;;2.70;2.50;;;;;;;;;;5081973;28;20790;-56
2023/03/08 14:08:57;;;;;;;3.53;3.23;;;;;;;;;;5076004;28;20440;-56
2023/03/08 14:11:34;;;;;;;3.07;2.87;;;;;;;;;;5079334;28;20483;-56
2023/03/08 14:14:02;;;;;;;3.30;3.00;;;;;;;;;;5069520;28;20939;-56
2023/03/08 14:16:34;;;;;;;2.87;2.67;;;;;;;;;;5072770;28;20429;-56
2023/03/08 14:19:09;;;;;;;4.17;3.20;;;;;;;;;;5073217;28;20952;-56
2023/03/08 14:21:35;;;;;;;2.87;2.67;;;;;;;;;;5073759;28;20217;-56
2023/03/08 14:24:04;;;;;;;3.80;3.47;;;;;;;;;;5065967;28;20528;-56
2023/03/08 14:26:31;;;;;;;3.80;3.50;;;;;;;;;;5072234;28;20627;-56
2023/03/08 14:29:08;;;;;;;3.80;3.50;;;;;;;;;;5072371;28;20452;-55
2023/03/08 14:31:35;;;;;;;3.87;3.47;;;;;;;;;;5070092;28;20661;-55
2023/03/08 14:34:03;;;;;;;3.40;3.10;;;;;;;;;;5078264;28;20653;-55
2023/03/08 14:36:30;;;;;;;3.87;3.57;;;;;;;;;;5069006;28;20444;-56
2023/03/08 14:39:00;;;;;;;4.17;3.50;;;;;;;;;;5069863;28;20426;-55
2023/03/08 14:41:34;;;;;;;3.63;3.33;;;;;;;;;;5072962;28;20240;-55
2023/03/08 14:44:01;;;;;;;3.83;3.30;;;;;;;;;;5073018;28;20434;-55
2023/03/08 14:46:28;;;;;;;3.63;3.33;;;;;;;;;;5071328;28;20215;-55
2023/03/08 14:49:02;;;;;;;3.90;3.50;;;;;;;;;;5084740;28;20188;-55
2023/03/08 14:51:41;;;;;;;3.47;3.17;;;;;;;;;;5078048;28;20695;-55
2023/03/08 14:54:20;;;;;;;4.03;3.53;;;;;;;;;;5075031;28;20195;-55